createdAt,value
2022-07-25T00:01:15.787Z,100580.31
2022-07-25T00:03:47.117Z,100564.53
2022-07-25T00:06:19.924Z,100571.94
2022-07-25T00:08:51.361Z,100564.22
2022-07-25T00:11:22.711Z,100568.38
2022-07-25T00:13:53.998Z,100568.78
2022-07-25T00:16:25.379Z,100555.19
2022-07-25T00:18:56.785Z,100560.88
2022-07-25T00:21:28.415Z,100562.41
2022-07-25T00:23:59.860Z,100563.06
2022-07-25T00:26:32.045Z,100562.78
2022-07-25T00:29:05.728Z,100555.53
2022-07-25T00:31:37.182Z,100550.50
2022-07-25T00:34:09.078Z,100548.94
2022-07-25T00:36:40.826Z,100541.78
2022-07-25T00:39:12.442Z,100551.88
2022-07-25T00:41:44.424Z,100547.25
2022-07-25T00:44:27.337Z,100540.78
2022-07-25T00:46:59.034Z,100548.69
2022-07-25T00:49:30.595Z,100554.59
2022-07-25T00:52:02.007Z,100551.81
2022-07-25T00:54:33.713Z,100535.47
2022-07-25T00:57:05.040Z,100536.25
2022-07-25T00:59:36.363Z,100532.56
2022-07-25T01:02:07.859Z,100515.81
2022-07-25T01:04:39.936Z,100531.72
2022-07-25T01:07:11.403Z,100518.31
2022-07-25T01:09:42.959Z,100507.50
2022-07-25T01:12:14.323Z,100516.56
2022-07-25T01:14:45.645Z,100517.34
2022-07-25T01:17:17.062Z,100510.97
2022-07-25T01:19:48.548Z,100514.41
2022-07-25T01:22:19.949Z,100505.34
2022-07-25T01:24:51.242Z,100515.38
2022-07-25T01:27:23.011Z,100510.19
2022-07-25T01:29:54.395Z,100508.47
2022-07-25T01:32:25.710Z,100512.25
2022-07-25T01:34:57.035Z,100505.97
2022-07-25T01:37:28.406Z,100501.53
2022-07-25T01:39:59.845Z,100495.38
2022-07-25T01:42:32.140Z,100473.44
2022-07-25T01:45:04.847Z,100483.50
2022-07-25T01:47:36.229Z,100464.66
2022-07-25T01:50:08.272Z,100479.66
2022-07-25T01:52:39.804Z,100484.53
2022-07-25T01:55:11.232Z,100480.84
2022-07-25T01:57:49.368Z,100470.03
2022-07-25T02:00:21.674Z,100469.28
2022-07-25T02:03:11.468Z,100459.66
2022-07-25T02:05:42.770Z,100455.53
2022-07-25T02:08:14.096Z,100468.63
2022-07-25T02:10:46.521Z,100466.03
2022-07-25T02:13:18.116Z,100463.53
2022-07-25T02:15:49.872Z,100462.75
2022-07-25T02:18:21.217Z,100459.50
2022-07-25T02:20:52.629Z,100457.13
2022-07-25T02:23:23.989Z,100442.94
2022-07-25T02:25:55.291Z,100448.16
2022-07-25T02:28:26.760Z,100445.34
2022-07-25T02:30:58.141Z,100439.94
2022-07-25T02:33:29.783Z,100439.06
2022-07-25T02:36:01.167Z,100435.41
2022-07-25T02:38:32.531Z,100437.81
2022-07-25T02:41:04.541Z,100424.09
2022-07-25T02:43:35.941Z,100433.72
2022-07-25T02:46:07.386Z,100419.16
2022-07-25T02:48:38.775Z,100413.66
2022-07-25T02:51:10.253Z,100418.19
2022-07-25T02:53:56.601Z,100416.56
2022-07-25T02:56:29.941Z,100419.03
2022-07-25T02:59:01.791Z,100415.47
2022-07-25T03:01:33.394Z,100410.06
2022-07-25T03:04:05.446Z,100408.34
2022-07-25T03:06:36.901Z,100400.44
2022-07-25T03:09:08.273Z,100399.59
2022-07-25T03:11:39.626Z,100402.84
2022-07-25T03:14:11.100Z,100400.25
2022-07-25T03:16:42.458Z,100406.50
2022-07-25T03:19:14.349Z,100398.31
2022-07-25T03:21:46.138Z,100389.25
2022-07-25T03:24:18.943Z,100394.63
2022-07-25T03:26:50.420Z,100386.44
2022-07-25T03:29:21.806Z,100385.56
2022-07-25T03:31:53.239Z,100374.97
2022-07-25T03:34:25.159Z,100371.31
2022-07-25T03:36:56.710Z,100367.63
2022-07-25T03:39:28.803Z,100348.94
2022-07-25T03:42:00.204Z,100349.69
2022-07-25T03:44:31.581Z,100352.09
2022-07-25T03:47:02.900Z,100341.16
2022-07-25T03:49:34.204Z,100345.59
2022-07-25T03:52:05.625Z,100348.75
2022-07-25T03:54:36.958Z,100345.84
2022-07-25T03:57:08.556Z,100344.66
2022-07-25T03:59:39.906Z,100338.16
2022-07-25T04:02:11.353Z,100336.94
2022-07-25T04:04:42.830Z,100331.31
2022-07-25T04:07:14.226Z,100331.22
2022-07-25T04:09:45.586Z,100328.09
2022-07-25T04:12:16.924Z,100324.19
2022-07-25T04:14:48.272Z,100321.19
2022-07-25T04:17:19.990Z,100319.88
2022-07-25T04:19:52.609Z,100310.47
2022-07-25T04:22:24.089Z,100314.59
2022-07-25T04:24:55.445Z,100308.72
2022-07-25T04:27:26.795Z,100300.41
2022-07-25T04:29:59.360Z,100308.59
2022-07-25T04:32:30.690Z,100295.81
2022-07-25T04:35:01.995Z,100296.75
2022-07-25T04:37:33.339Z,100296.09
2022-07-25T04:40:05.634Z,100278.19
2022-07-25T04:42:36.925Z,100275.56
2022-07-25T04:45:08.866Z,100272.66
2022-07-25T04:47:40.635Z,100264.47
2022-07-25T04:50:12.803Z,100266.09
2022-07-25T04:52:44.296Z,100266.75
2022-07-25T04:55:15.823Z,100246.47
2022-07-25T04:57:47.315Z,100249.72
2022-07-25T05:00:18.696Z,100260.44
2022-07-25T05:02:51.422Z,100244.06
2022-07-25T05:05:22.845Z,100247.47
2022-07-25T05:07:59.075Z,100251.78
2022-07-25T05:10:30.629Z,100246.47
2022-07-25T05:13:01.975Z,100249.47
2022-07-25T05:15:33.285Z,100239.81
2022-07-25T05:18:04.875Z,100236.72
2022-07-25T05:20:36.272Z,100234.75
2022-07-25T05:23:07.678Z,100238.34
2022-07-25T05:25:39.096Z,100229.22
2022-07-25T05:28:10.445Z,100229.94
2022-07-25T05:30:41.834Z,100225.25
2022-07-25T05:33:13.175Z,100221.28
2022-07-25T05:35:44.523Z,100215.94
2022-07-25T05:38:15.845Z,100222.94
2022-07-25T05:40:47.160Z,100222.63
2022-07-25T05:43:19.131Z,100219.72
2022-07-25T05:45:50.435Z,100213.38
2022-07-25T05:48:21.841Z,100216.16
2022-07-25T05:50:53.177Z,100208.59
2022-07-25T05:53:25.028Z,100200.50
2022-07-25T05:55:56.400Z,100207.91
2022-07-25T05:58:30.030Z,100209.16
2022-07-25T06:01:01.601Z,100206.81
2022-07-25T06:03:34.262Z,100193.72
2022-07-25T06:06:08.585Z,100187.50
2022-07-25T06:08:40.283Z,100192.22
2022-07-25T06:11:11.779Z,100192.81
2022-07-25T06:13:44.181Z,100188.22
2022-07-25T06:16:15.712Z,100182.22
2022-07-25T06:18:47.162Z,100174.75
2022-07-25T06:21:19.455Z,100191.34
2022-07-25T06:23:50.821Z,100182.97
2022-07-25T06:26:22.257Z,100188.66
2022-07-25T06:28:53.659Z,100179.00
2022-07-25T06:31:27.706Z,100183.28
2022-07-25T06:33:59.276Z,100186.81
2022-07-25T06:36:32.674Z,100192.81
2022-07-25T06:39:04.341Z,100190.56
2022-07-25T06:41:37.525Z,100195.94
2022-07-25T06:44:09.218Z,100187.44
2022-07-25T06:46:41.206Z,100186.53
2022-07-25T06:49:12.835Z,100185.16
2022-07-25T06:51:44.401Z,100181.56
2022-07-25T06:54:15.743Z,100179.88
2022-07-25T06:56:47.101Z,100177.91
2022-07-25T06:59:18.521Z,100187.69
2022-07-25T07:01:51.793Z,100178.19
2022-07-25T07:04:23.314Z,100174.72
2022-07-25T07:06:54.670Z,100178.28
2022-07-25T07:09:25.990Z,100162.34
2022-07-25T07:11:57.435Z,100167.72
2022-07-25T07:14:28.889Z,100170.38
2022-07-25T07:17:00.379Z,100162.19
2022-07-25T07:19:31.824Z,100163.41
2022-07-25T07:22:03.682Z,100152.28
2022-07-25T07:24:38.804Z,100149.06
2022-07-25T07:27:15.341Z,100147.53
2022-07-25T07:29:51.070Z,100142.44
2022-07-25T07:32:22.471Z,100142.44
2022-07-25T07:34:53.810Z,100134.41
2022-07-25T07:37:25.197Z,100133.88
2022-07-25T07:39:56.486Z,100131.47
2022-07-25T07:42:27.801Z,100130.09
2022-07-25T07:44:59.430Z,100132.47
2022-07-25T07:47:30.789Z,100138.94
2022-07-25T07:50:02.095Z,100129.31
2022-07-25T07:52:33.395Z,100125.00
2022-07-25T07:55:23.755Z,100126.19
2022-07-25T07:57:56.069Z,100123.47
2022-07-25T08:00:30.918Z,100118.97
2022-07-25T08:03:03.417Z,100115.47
2022-07-25T08:05:43.192Z,100110.63
2022-07-25T08:08:15.177Z,100110.41
2022-07-25T08:10:48.631Z,100106.69
2022-07-25T08:13:23.997Z,100096.25
2022-07-25T08:15:58.041Z,100104.75
2022-07-25T08:18:30.191Z,100103.34
2022-07-25T08:21:04.084Z,100099.56
2022-07-25T08:23:38.532Z,100095.38
2022-07-25T08:26:09.883Z,100101.88
2022-07-25T08:28:41.540Z,100105.00
2022-07-25T08:31:12.904Z,100091.44
2022-07-25T08:33:44.298Z,100096.50
2022-07-25T08:36:15.617Z,100092.22
2022-07-25T08:38:46.990Z,100089.38
2022-07-25T08:41:18.308Z,100087.88
2022-07-25T08:43:56.373Z,100087.19
2022-07-25T08:46:30.086Z,100072.09
2022-07-25T08:49:02.536Z,100062.69
2022-07-25T08:51:34.387Z,100064.78
2022-07-25T08:54:06.776Z,100067.22
2022-07-25T08:56:38.724Z,100062.78
2022-07-25T08:59:10.187Z,100063.47
2022-07-25T09:01:41.721Z,100050.66
2022-07-25T09:04:13.280Z,100055.56
2022-07-25T09:06:51.785Z,100058.34
2022-07-25T09:09:33.122Z,100054.56
2022-07-25T09:12:05.872Z,100048.34
2022-07-25T09:14:44.076Z,100052.47
2022-07-25T09:17:22.648Z,100050.47
2022-07-25T09:19:59.281Z,100057.69
2022-07-25T09:22:30.636Z,100053.31
2022-07-25T09:25:01.971Z,100047.16
2022-07-25T09:27:34.478Z,100044.88
2022-07-25T09:30:14.584Z,100037.47
2022-07-25T09:32:46.277Z,100036.84
2022-07-25T09:35:17.688Z,100033.28
2022-07-25T09:37:49.005Z,100031.16
2022-07-25T09:40:20.344Z,100024.00
2022-07-25T09:42:52.395Z,100033.38
2022-07-25T09:45:26.066Z,100014.97
2022-07-25T09:48:04.117Z,100014.25
2022-07-25T09:50:35.996Z,100024.09
2022-07-25T09:53:07.328Z,100026.91
2022-07-25T09:55:38.677Z,100020.75
2022-07-25T09:58:10.006Z,100025.22
2022-07-25T10:00:42.546Z,100012.25
2022-07-25T10:03:32.420Z,100010.56
2022-07-25T10:06:14.960Z,100015.44
2022-07-25T10:08:47.761Z,100021.78
2022-07-25T10:11:24.442Z,100010.50
2022-07-25T10:13:56.607Z,100010.13
2022-07-25T10:16:28.054Z,100018.84
2022-07-25T10:18:59.615Z,100013.31
2022-07-25T10:21:31.151Z,100007.75
2022-07-25T10:24:05.916Z,99994.16
2022-07-25T10:26:39.983Z,99993.72
2022-07-25T10:29:12.728Z,99989.03
2022-07-25T10:31:51.502Z,99992.66
2022-07-25T10:34:33.251Z,99984.78
2022-07-25T10:37:21.244Z,99987.78
2022-07-25T10:39:52.729Z,99985.00
2022-07-25T10:42:24.089Z,99991.38
2022-07-25T10:44:57.539Z,99975.66
2022-07-25T10:47:29.013Z,99978.63
2022-07-25T10:53:00.347Z,99969.91
2022-07-25T10:55:36.589Z,99970.38
2022-07-25T10:58:22.323Z,99984.78
2022-07-25T11:00:53.936Z,99983.06
2022-07-25T11:03:26.263Z,99973.09
2022-07-25T11:05:57.598Z,99989.22
2022-07-25T11:08:35.750Z,99979.44
2022-07-25T11:11:08.081Z,99988.97
2022-07-25T11:13:41.826Z,99979.41
2022-07-25T11:16:13.260Z,99981.34
2022-07-25T11:18:44.641Z,99988.78
2022-07-25T11:21:15.934Z,99983.88
2022-07-25T11:23:53.685Z,99977.06
2022-07-25T11:26:25.058Z,99981.75
2022-07-25T11:28:56.386Z,99980.94
2022-07-25T11:31:27.810Z,99971.41
2022-07-25T11:33:59.275Z,99969.94
2022-07-25T11:36:30.858Z,99970.75
2022-07-25T11:39:02.363Z,99963.53
2022-07-25T11:41:33.756Z,99966.28
2022-07-25T11:44:05.572Z,99956.50
2022-07-25T11:46:47.154Z,99946.09
2022-07-25T11:49:18.566Z,99946.09
2022-07-25T11:51:50.191Z,99940.34
2022-07-25T11:54:21.646Z,99923.97
2022-07-25T11:56:53.040Z,99928.47
2022-07-25T11:59:25.287Z,99928.69
2022-07-25T12:01:57.463Z,99921.00
2022-07-25T12:04:28.876Z,99928.44
2022-07-25T12:07:05.109Z,99917.16
2022-07-25T12:09:36.424Z,99929.91
2022-07-25T12:12:08.130Z,99933.53
2022-07-25T12:14:43.783Z,99922.06
2022-07-25T12:17:15.772Z,99936.94
2022-07-25T12:19:47.339Z,99940.25
2022-07-25T12:22:18.796Z,99934.13
2022-07-25T12:24:50.193Z,99941.81
2022-07-25T12:27:21.671Z,99948.22
2022-07-25T12:29:53.004Z,99939.72
2022-07-25T12:32:24.439Z,99929.50
2022-07-25T12:34:55.740Z,99941.19
2022-07-25T12:37:27.411Z,99937.56
2022-07-25T12:39:58.835Z,99938.31
2022-07-25T12:42:30.295Z,99934.47
2022-07-25T12:45:01.893Z,99940.41
2022-07-25T12:47:33.262Z,99935.50
2022-07-25T12:50:05.805Z,99942.84
2022-07-25T12:52:38.316Z,99949.06
2022-07-25T12:55:13.248Z,99938.75
2022-07-25T12:57:44.906Z,99941.66
2022-07-25T13:00:20.213Z,99936.31
2022-07-25T13:02:53.070Z,99939.59
2022-07-25T13:05:25.451Z,99935.31
2022-07-25T13:07:56.793Z,99937.06
2022-07-25T13:10:28.178Z,99943.25
2022-07-25T13:12:59.492Z,99937.94
2022-07-25T13:15:31.082Z,99927.34
2022-07-25T13:18:03.333Z,99932.88
2022-07-25T13:20:37.298Z,99930.41
2022-07-25T13:23:08.626Z,99930.97
2022-07-25T13:25:40.171Z,99928.81
2022-07-25T13:28:11.613Z,99917.31
2022-07-25T13:30:42.971Z,99918.13
2022-07-25T13:33:14.399Z,99912.22
2022-07-25T13:35:45.710Z,99912.31
2022-07-25T13:38:17.036Z,99909.41
2022-07-25T13:40:48.420Z,99907.25
2022-07-25T13:43:19.719Z,99909.19
2022-07-25T13:45:51.170Z,99914.94
2022-07-25T13:48:30.604Z,99917.09
2022-07-25T13:51:03.609Z,99894.56
2022-07-25T13:53:34.958Z,99917.16
2022-07-25T13:56:06.858Z,99905.06
2022-07-25T13:58:38.544Z,99903.78
2022-07-25T14:01:11.477Z,99901.03
2022-07-25T14:03:42.961Z,99906.56
2022-07-25T14:06:14.321Z,99896.72
2022-07-25T14:08:45.801Z,99899.22
2022-07-25T14:11:17.293Z,99887.75
2022-07-25T14:13:48.623Z,99872.19
2022-07-25T14:16:20.154Z,99879.81
2022-07-25T14:18:51.756Z,99888.94
2022-07-25T14:21:23.218Z,99879.94
2022-07-25T14:23:54.639Z,99871.44
2022-07-25T14:26:28.115Z,99885.88
2022-07-25T14:28:59.527Z,99869.25
2022-07-25T14:31:32.758Z,99866.75
2022-07-25T14:34:04.170Z,99863.00
2022-07-25T14:36:35.951Z,99867.66
2022-07-25T14:39:08.040Z,99862.81
2022-07-25T14:41:40.002Z,99867.22
2022-07-25T14:44:11.342Z,99879.59
2022-07-25T14:46:45.695Z,99893.22
2022-07-25T14:49:17.325Z,99903.53
2022-07-25T14:51:49.424Z,99932.25
2022-07-25T14:54:20.948Z,99940.38
2022-07-25T14:56:52.353Z,99940.66
2022-07-25T14:59:24.386Z,99936.81
2022-07-25T15:01:55.891Z,99953.25
2022-07-25T15:04:27.348Z,99968.50
2022-07-25T15:06:58.869Z,99959.88
2022-07-25T15:09:30.177Z,99975.63
2022-07-25T15:12:01.531Z,99988.84
2022-07-25T15:14:32.848Z,100003.16
2022-07-25T15:17:04.355Z,100034.22
2022-07-25T15:19:35.672Z,100058.91
2022-07-25T15:22:07.057Z,100055.97
2022-07-25T15:25:04.409Z,100064.59
2022-07-25T15:27:29.856Z,100078.28
2022-07-25T15:30:01.469Z,100091.94
2022-07-25T15:32:32.893Z,100095.66
2022-07-25T15:35:04.730Z,100071.41
2022-07-25T15:37:36.277Z,100085.91
2022-07-25T15:40:08.374Z,100101.94
2022-07-25T15:42:40.053Z,100074.13
2022-07-25T15:48:03.671Z,100098.56
2022-07-25T15:50:45.818Z,100093.78
2022-07-25T15:53:17.625Z,100092.66
2022-07-25T15:55:49.173Z,100089.00
2022-07-25T15:58:20.486Z,100112.31
2022-07-25T16:00:51.880Z,100119.78
2022-07-25T16:03:23.907Z,100096.66
2022-07-25T16:05:57.055Z,100090.84
2022-07-25T16:08:28.480Z,100102.84
2022-07-25T16:11:00.042Z,100108.69
2022-07-25T16:13:31.503Z,100106.34
2022-07-25T16:16:02.926Z,100100.22
2022-07-25T16:18:34.402Z,100093.44
2022-07-25T16:21:06.174Z,100098.91
2022-07-25T16:23:42.581Z,100091.41
2022-07-25T16:26:16.624Z,100075.09
2022-07-25T16:28:48.639Z,100081.38
2022-07-25T16:31:19.983Z,100071.50
2022-07-25T16:33:51.309Z,100078.16
2022-07-25T16:36:25.999Z,100067.13
2022-07-25T16:38:59.237Z,100079.09
2022-07-25T16:41:30.595Z,100082.44
2022-07-25T16:44:02.817Z,100066.88
2022-07-25T16:46:34.235Z,100096.81
2022-07-25T16:49:06.210Z,100078.63
2022-07-25T16:51:37.753Z,100097.28
2022-07-25T16:54:10.589Z,100098.94
2022-07-25T16:56:42.578Z,100110.16
2022-07-25T16:59:13.940Z,100123.94
2022-07-25T17:01:46.418Z,100127.16
2022-07-25T17:04:18.025Z,100135.03
2022-07-25T17:06:49.419Z,100137.81
2022-07-25T17:09:21.638Z,100138.41
2022-07-25T17:11:53.100Z,100132.50
2022-07-25T17:14:29.939Z,100128.91
2022-07-25T17:17:01.880Z,100106.25
2022-07-25T17:19:36.198Z,100127.47
2022-07-25T17:22:10.873Z,100123.69
2022-07-25T17:24:42.224Z,100123.31
2022-07-25T17:27:14.538Z,100120.25
2022-07-25T17:29:45.911Z,100102.31
2022-07-25T17:32:17.262Z,100124.28
2022-07-25T17:34:48.644Z,100122.56
2022-07-25T17:37:20.241Z,100132.63
2022-07-25T17:39:51.650Z,100118.22
2022-07-25T17:42:23.857Z,100134.69
2022-07-25T17:44:55.438Z,100138.59
2022-07-25T17:47:26.764Z,100135.31
2022-07-25T17:49:58.071Z,100148.00
2022-07-25T17:52:30.070Z,100147.53
2022-07-25T17:55:03.425Z,100141.88
2022-07-25T17:57:35.107Z,100138.03
2022-07-25T18:00:07.271Z,100138.44
2022-07-25T18:02:39.712Z,100117.78
2022-07-25T18:05:11.307Z,100120.91
2022-07-25T18:07:49.326Z,100126.69
2022-07-25T18:10:21.739Z,100111.53
2022-07-25T18:12:53.101Z,100150.47
2022-07-25T18:15:24.580Z,100137.78
2022-07-25T18:17:55.914Z,100139.97
2022-07-25T18:20:28.109Z,100137.63
2022-07-25T18:22:59.559Z,100145.03
2022-07-25T18:25:31.028Z,100142.59
2022-07-25T18:28:02.433Z,100143.06
2022-07-25T18:30:33.869Z,100141.81
2022-07-25T18:33:05.188Z,100138.94
2022-07-25T18:35:36.639Z,100132.38
2022-07-25T18:38:08.139Z,100138.88
2022-07-25T18:40:39.562Z,100127.66
2022-07-25T18:43:11.687Z,100139.69
2022-07-25T18:45:43.263Z,100143.38
2022-07-25T18:48:16.355Z,100146.19
2022-07-25T18:50:47.714Z,100137.97
2022-07-25T18:53:19.019Z,100138.06
2022-07-25T18:55:50.468Z,100139.34
2022-07-25T18:58:21.839Z,100152.28
2022-07-25T19:00:53.240Z,100154.25
2022-07-25T19:03:24.668Z,100161.13
2022-07-25T19:06:01.228Z,100154.47
2022-07-25T19:08:35.023Z,100174.13
2022-07-25T19:11:06.981Z,100177.41
2022-07-25T19:13:49.586Z,100182.91
2022-07-25T19:16:21.864Z,100184.34
2022-07-25T19:18:53.551Z,100169.00
2022-07-25T19:21:25.093Z,100186.31
2022-07-25T19:23:56.447Z,100196.84
2022-07-25T19:26:28.188Z,100181.50
2022-07-25T19:28:59.616Z,100195.13
2022-07-25T19:31:31.077Z,100197.41
2022-07-25T19:34:02.405Z,100207.34
2022-07-25T19:36:33.965Z,100214.69
2022-07-25T19:39:06.158Z,100216.94
2022-07-25T19:41:42.100Z,100201.63
2022-07-25T19:44:16.101Z,100217.72
2022-07-25T19:46:48.942Z,100216.84
2022-07-25T19:49:20.518Z,100227.75
2022-07-25T19:51:51.945Z,100227.41
2022-07-25T19:54:24.265Z,100228.72
2022-07-25T19:56:55.807Z,100235.38
2022-07-25T19:59:27.266Z,100234.91
2022-07-25T20:01:59.002Z,100239.34
2022-07-25T20:04:30.948Z,100235.78
2022-07-25T20:07:03.201Z,100243.22
2022-07-25T20:09:34.844Z,100232.00
2022-07-25T20:12:06.625Z,100241.59
2022-07-25T20:14:38.110Z,100253.38
2022-07-25T20:17:10.792Z,100250.13
2022-07-25T20:19:42.378Z,100254.53
2022-07-25T20:22:13.698Z,100261.47
2022-07-25T20:24:45.018Z,100259.94
2022-07-25T20:27:16.499Z,100256.69
2022-07-25T20:29:47.905Z,100267.47
2022-07-25T20:32:19.258Z,100267.47
2022-07-25T20:34:52.446Z,100268.56
2022-07-25T20:37:23.926Z,100270.78
2022-07-25T20:39:56.637Z,100273.69
2022-07-25T20:42:28.046Z,100286.66
2022-07-25T20:44:59.325Z,100280.69
2022-07-25T20:47:30.629Z,100277.25
2022-07-25T20:50:02.116Z,100286.84
2022-07-25T20:52:33.547Z,100277.16
2022-07-25T20:55:07.999Z,100270.78
2022-07-25T20:57:39.331Z,100290.94
2022-07-25T21:00:11.439Z,100291.28
2022-07-25T21:02:42.952Z,100292.75
2022-07-25T21:05:14.311Z,100281.91
2022-07-25T21:07:45.702Z,100296.56
2022-07-25T21:10:17.371Z,100295.34
2022-07-25T21:12:48.862Z,100292.13
2022-07-25T21:15:20.213Z,100291.97
2022-07-25T21:17:51.670Z,100302.66
2022-07-25T21:20:23.021Z,100289.84
2022-07-25T21:22:55.257Z,100294.66
2022-07-25T21:25:26.645Z,100305.66
2022-07-25T21:27:57.943Z,100300.84
2022-07-25T21:30:29.372Z,100306.22
2022-07-25T21:33:01.121Z,100301.91
2022-07-25T21:35:32.627Z,100298.81
2022-07-25T21:38:27.365Z,100288.63
2022-07-25T21:41:00.786Z,100318.03
2022-07-25T21:43:32.101Z,100310.38
2022-07-25T21:46:03.583Z,100299.31
2022-07-25T21:49:05.337Z,100311.81
2022-07-25T21:51:40.341Z,100306.81
2022-07-25T21:54:12.366Z,100302.13
2022-07-25T21:56:43.696Z,100319.88
2022-07-25T21:59:15.048Z,100316.75
2022-07-25T22:01:46.408Z,100309.81
2022-07-25T22:04:18.014Z,100313.66
2022-07-25T22:06:49.405Z,100316.69
2022-07-25T22:09:21.062Z,100313.41
2022-07-25T22:11:54.501Z,100296.00
2022-07-25T22:14:26.092Z,100295.50
2022-07-25T22:16:57.496Z,100304.34
2022-07-25T22:19:28.822Z,100307.31
2022-07-25T22:22:00.577Z,100298.66
2022-07-25T22:24:32.139Z,100306.91
2022-07-25T22:27:03.526Z,100297.19
2022-07-25T22:29:34.942Z,100300.91
2022-07-25T22:32:06.504Z,100298.13
2022-07-25T22:34:37.829Z,100301.78
2022-07-25T22:37:09.118Z,100292.06
2022-07-25T22:39:40.453Z,100308.81
2022-07-25T22:42:11.790Z,100304.28
2022-07-25T22:44:47.657Z,100300.56
2022-07-25T22:47:18.965Z,100308.63
2022-07-25T22:49:50.266Z,100306.22
2022-07-25T22:52:21.588Z,100317.56
2022-07-25T22:54:53.001Z,100301.44
2022-07-25T22:57:24.328Z,100312.19
2022-07-25T22:59:55.628Z,100317.56
2022-07-25T23:02:27.137Z,100302.75
2022-07-25T23:04:58.493Z,100301.88
2022-07-25T23:07:29.868Z,100314.19
2022-07-25T23:10:02.018Z,100316.19
2022-07-25T23:12:33.824Z,100306.56
2022-07-25T23:15:05.775Z,100315.59
2022-07-25T23:17:37.082Z,100331.13
2022-07-25T23:20:09.175Z,100312.91
2022-07-25T23:22:40.565Z,100329.91
2022-07-25T23:25:12.757Z,100319.53
2022-07-25T23:27:44.397Z,100316.56
2022-07-25T23:30:16.879Z,100329.06
2022-07-25T23:32:48.344Z,100323.41
2022-07-25T23:35:19.702Z,100322.63
2022-07-25T23:37:51.006Z,100328.34
2022-07-25T23:40:22.399Z,100327.66
2022-07-25T23:42:54.373Z,100311.19
2022-07-25T23:45:27.812Z,100329.91
2022-07-25T23:47:59.298Z,100317.59
2022-07-25T23:50:30.712Z,100312.72
2022-07-25T23:53:02.031Z,100320.88
2022-07-25T23:55:33.334Z,100319.38
2022-07-25T23:58:04.707Z,100319.63
